Station Historical Data
Daily Summary for April 20, 2017 Units:  Metric    English   Both
« Previous Day
Next Day »
Daily Weekly Monthly Yearly Custom
  High: Low: Average:
Temperature: 13 °C 6.9 °C 8.8 °C
Dew Point: 11.6 °C 5 °C 7.2 °C
Humidity: 94% 84% 90%
Wind Speed: 25.7km/h 0km/h 7.7km/h
Wind Gust: 33.8km/h - -
Wind- - ENE
Pressure: 1020.5 hPa 1008.7 hPa -
Precipitation: 0 mm    
Historical Graphs
 
 
Tabular Data for April 20, 2017
Time Temperature Dew Point Pressure Wind Wind Speed Wind Gust Humidity Rainfall Rate (Hourly)
00:04 13 °C 11.6 °C 1018.5 hPa ENE 3.2 km/h 9.7 km/h 91% 0 mm
00:09 12.9 °C 11.4 °C 1018.5 hPa NE 3.2 km/h 8 km/h 91% 0 mm
00:14 12.8 °C 11.2 °C 1018.5 hPa NE 4.8 km/h 9.7 km/h 90% 0 mm
00:19 12.7 °C 11.1 °C 1018.8 hPa NE 3.2 km/h 9.7 km/h 90% 0 mm
00:24 12.6 °C 10.8 °C 1018.8 hPa NE 3.2 km/h 8 km/h 89% 0 mm
00:29 12.6 °C 10.6 °C 1018.8 hPa NE 3.2 km/h 6.4 km/h 88% 0 mm
00:34 12.4 °C 10.3 °C 1018.8 hPa Calm   4.8 km/h 87% 0 mm
00:39 12.3 °C 10.2 °C 1018.8 hPa NE 1.6 km/h 4.8 km/h 87% 0 mm
00:44 12.2 °C 10.1 °C 1018.8 hPa Calm     87% 0 mm
00:49 12.2 °C 10.1 °C 1018.8 hPa Calm     87% 0 mm
00:54 12.1 °C 10 °C 1019.2 hPa Calm     87% 0 mm
00:59 12 °C 9.9 °C 1019.2 hPa Calm     87% 0 mm
01:04 11.9 °C 9.8 °C 1018.8 hPa Calm     87% 0 mm
01:09 11.9 °C 9.8 °C 1018.8 hPa Calm   4.8 km/h 87% 0 mm
01:14 11.8 °C 9.9 °C 1018.8 hPa NE 1.6 km/h 4.8 km/h 88% 0 mm
01:19 11.8 °C 9.8 °C 1018.8 hPa NE 1.6 km/h 4.8 km/h 88% 0 mm
01:24 11.8 °C 9.8 °C 1018.8 hPa Calm   3.2 km/h 88% 0 mm
01:29 11.7 °C 9.7 °C 1018.8 hPa NE 3.2 km/h 3.2 km/h 88% 0 mm
01:34 11.6 °C 9.6 °C 1018.8 hPa Calm   3.2 km/h 88% 0 mm
01:39 11.5 °C 9.6 °C 1018.8 hPa Calm   3.2 km/h 88% 0 mm
01:44 11.4 °C 9.5 °C 1018.8 hPa Calm     88% 0 mm
01:49 11.4 °C 9.4 °C 1018.8 hPa NE 1.6 km/h 4.8 km/h 88% 0 mm
01:54 11.4 °C 9.4 °C 1018.8 hPa Calm   3.2 km/h 88% 0 mm
01:59 11.3 °C 9.4 °C 1018.8 hPa Calm   6.4 km/h 88% 0 mm
02:04 11.3 °C 9.4 °C 1018.8 hPa NE 1.6 km/h 4.8 km/h 88% 0 mm
02:09 11.3 °C 9.4 °C 1018.8 hPa NE 1.6 km/h 4.8 km/h 88% 0 mm
02:14 11.3 °C 9.2 °C 1018.8 hPa NNE 3.2 km/h 8 km/h 87% 0 mm
02:19 11.2 °C 9.1 °C 1018.5 hPa NNE 3.2 km/h 8 km/h 87% 0 mm
02:24 11.2 °C 8.9 °C 1018.8 hPa NNE 3.2 km/h 6.4 km/h 86% 0 mm
02:29 11.2 °C 8.9 °C 1018.8 hPa North 4.8 km/h 6.4 km/h 86% 0 mm
02:34 11.2 °C 8.7 °C 1018.5 hPa NNE 1.6 km/h 4.8 km/h 85% 0 mm
02:39 11.1 °C 8.8 °C 1018.8 hPa NNE 1.6 km/h 4.8 km/h 86% 0 mm
02:44 11.1 °C 8.8 °C 1018.8 hPa NNE 1.6 km/h 4.8 km/h 86% 0 mm
02:49 11.1 °C 9 °C 1018.8 hPa NNE 1.6 km/h 6.4 km/h 87% 0 mm
02:54 10.9 °C 8.9 °C 1018.8 hPa NNE 1.6 km/h 4.8 km/h 87% 0 mm
02:59 10.8 °C 8.8 °C 1018.8 hPa NW 3.2 km/h 8 km/h 87% 0 mm
03:04 10.8 °C 8.7 °C 1018.8 hPa NNW 3.2 km/h 4.8 km/h 87% 0 mm
03:09 10.8 °C 8.7 °C 1018.8 hPa NW 3.2 km/h 6.4 km/h 87% 0 mm
03:14 10.7 °C 8.4 °C 1018.8 hPa North 3.2 km/h 8 km/h 86% 0 mm
03:19 10.6 °C 8.4 °C 1018.8 hPa NNE 6.4 km/h 9.7 km/h 86% 0 mm
03:24 10.4 °C 8.1 °C 1018.8 hPa NNE 3.2 km/h 11.3 km/h 85% 0 mm
03:29 10.4 °C 8 °C 1018.8 hPa North 8 km/h 11.3 km/h 85% 0 mm
03:34 10.3 °C 7.7 °C 1018.8 hPa North 8 km/h 16.1 km/h 84% 0 mm
03:39 10.2 °C 7.6 °C 1018.8 hPa NE 6.4 km/h 16.1 km/h 84% 0 mm
03:44 10.1 °C 7.7 °C 1018.8 hPa NE 8 km/h 19.3 km/h 85% 0 mm
03:49 10.1 °C 7.7 °C 1018.8 hPa NE 6.4 km/h 19.3 km/h 85% 0 mm
03:54 10.1 °C 7.7 °C 1018.8 hPa NE 6.4 km/h 16.1 km/h 85% 0 mm
03:59 10.1 °C 7.8 °C 1018.8 hPa ENE 11.3 km/h 24.1 km/h 86% 0 mm
04:04 10.1 °C 7.8 °C 1018.8 hPa NE 9.7 km/h 24.1 km/h 86% 0 mm
04:09 10.1 °C 7.8 °C 1019.2 hPa NNE 6.4 km/h 16.1 km/h 86% 0 mm
04:14 10.1 °C 8 °C 1019.2 hPa NE 12.9 km/h 22.5 km/h 87% 0 mm
04:19 10.1 °C 8 °C 1019.2 hPa NE 16.1 km/h 24.1 km/h 87% 0 mm
04:24 10.1 °C 8 °C 1019.2 hPa NE 4.8 km/h 19.3 km/h 87% 0 mm
04:29 10 °C 7.9 °C 1019.2 hPa NE 11.3 km/h 33.8 km/h 87% 0 mm
04:34 9.9 °C 7.9 °C 1019.2 hPa NE 11.3 km/h 33.8 km/h 87% 0 mm
04:39 9.9 °C 7.8 °C 1019.2 hPa NE 12.9 km/h 25.7 km/h 87% 0 mm
04:44 9.8 °C 7.8 °C 1019.2 hPa NE 12.9 km/h 27.4 km/h 87% 0 mm
04:49 9.8 °C 7.7 °C 1019.2 hPa NE 12.9 km/h 27.4 km/h 87% 0 mm
04:54 9.8 °C 7.9 °C 1019.2 hPa ENE 11.3 km/h 16.1 km/h 88% 0 mm
04:59 9.8 °C 7.9 °C 1019.2 hPa NE 12.9 km/h 17.7 km/h 88% 0 mm
05:04 9.8 °C 7.9 °C 1019.2 hPa NE 6.4 km/h 16.1 km/h 88% 0 mm
05:09 9.8 °C 7.9 °C 1019.2 hPa NE 8 km/h 16.1 km/h 88% 0 mm
05:14 9.7 °C 7.8 °C 1019.5 hPa NE 8 km/h 19.3 km/h 88% 0 mm
05:19 9.6 °C 7.7 °C 1019.5 hPa NE 8 km/h 19.3 km/h 88% 0 mm
05:24 9.6 °C 7.7 °C 1019.5 hPa NE 8 km/h 19.3 km/h 88% 0 mm
05:29 9.6 °C 7.7 °C 1019.5 hPa NE 9.7 km/h 19.3 km/h 88% 0 mm
05:34 9.5 °C 7.8 °C 1019.5 hPa NE 11.3 km/h 19.3 km/h 89% 0 mm
05:39 9.4 °C 7.7 °C 1019.2 hPa NE 9.7 km/h 12.9 km/h 89% 0 mm
05:44 9.3 °C 7.6 °C 1019.2 hPa NE 6.4 km/h 17.7 km/h 89% 0 mm
05:49 9.3 °C 7.6 °C 1019.5 hPa NE 8 km/h 25.7 km/h 89% 0 mm
05:54 9.2 °C 7.4 °C 1019.5 hPa NNE 11.3 km/h 17.7 km/h 89% 0 mm
05:59 9.1 °C 7.6 °C 1019.9 hPa NNW 12.9 km/h 19.3 km/h 90% 0 mm
06:04 9.1 °C 7.5 °C 1019.5 hPa NE 9.7 km/h 20.9 km/h 90% 0 mm
06:09 8.9 °C 7.4 °C 1019.2 hPa NE 11.3 km/h 22.5 km/h 90% 0 mm
06:14 8.8 °C 7.2 °C 1019.5 hPa NE 12.9 km/h 19.3 km/h 90% 0 mm
06:19 8.7 °C 7.1 °C 1019.5 hPa NNE 4.8 km/h 22.5 km/h 90% 0 mm
06:24 8.6 °C 7.1 °C 1019.9 hPa NE 3.2 km/h 12.9 km/h 90% 0 mm
06:29 8.6 °C 7 °C 1019.9 hPa NE 6.4 km/h 12.9 km/h 90% 0 mm
06:34 8.6 °C 7 °C 1019.5 hPa NE 8 km/h 19.3 km/h 90% 0 mm
06:39 8.4 °C 6.9 °C 1019.5 hPa NE 9.7 km/h 24.1 km/h 90% 0 mm
06:44 8.3 °C 6.7 °C 1019.5 hPa NE 11.3 km/h 24.1 km/h 90% 0 mm
06:49 8.2 °C 6.6 °C 1019.9 hPa ENE 6.4 km/h 25.7 km/h 90% 0 mm
06:54 8.1 °C 6.7 °C 1019.5 hPa NE 12.9 km/h 24.1 km/h 91% 0 mm
06:59 7.9 °C 6.6 °C 1019.9 hPa NE 12.9 km/h 24.1 km/h 91% 0 mm
07:04 7.8 °C 6.2 °C 1019.9 hPa ENE 12.9 km/h 27.4 km/h 90% 0 mm
07:09 7.6 °C 6.1 °C 1019.5 hPa NE 11.3 km/h 27.4 km/h 90% 0 mm
07:14 7.4 °C 5.9 °C 1019.5 hPa NE 8 km/h 24.1 km/h 90% 0 mm
07:19 7.4 °C 6 °C 1019.5 hPa NE 12.9 km/h 22.5 km/h 91% 0 mm
07:24 7.3 °C 5.9 °C 1019.5 hPa NE 12.9 km/h 22.5 km/h 91% 0 mm
07:29 7.2 °C 5.8 °C 1019.5 hPa NE 12.9 km/h 22.5 km/h 91% 0 mm
07:34 7.2 °C 5.8 °C 1019.5 hPa NE 12.9 km/h 22.5 km/h 91% 0 mm
07:39 7.2 °C 5.8 °C 1019.5 hPa ENE 11.3 km/h 27.4 km/h 91% 0 mm
07:44 7.1 °C 5.7 °C 1019.5 hPa ENE 11.3 km/h 27.4 km/h 91% 0 mm
07:49 7.1 °C 5.7 °C 1019.5 hPa NE 11.3 km/h 25.7 km/h 91% 0 mm
07:54 7 °C 5.6 °C 1019.9 hPa NE 14.5 km/h 14.5 km/h 91% 0 mm
07:59 6.9 °C 5.6 °C 1019.9 hPa East 12.9 km/h 20.9 km/h 91% 0 mm
08:04 6.9 °C 5.6 °C 1019.9 hPa NE 12.9 km/h 20.9 km/h 91% 0 mm
08:09 7 °C 5.6 °C 1019.9 hPa East 3.2 km/h 19.3 km/h 91% 0 mm
08:14 7.1 °C 5.7 °C 1019.9 hPa ENE 8 km/h 19.3 km/h 91% 0 mm
08:19 7.1 °C 5.7 °C 1020.2 hPa NE 9.7 km/h 20.9 km/h 91% 0 mm
08:24 7.2 °C 5.8 °C 1020.2 hPa ENE 8 km/h 20.9 km/h 91% 0 mm
08:29 7.1 °C 5.6 °C 1020.5 hPa ENE 8 km/h 17.7 km/h 90% 0 mm
08:34 7.1 °C 5.6 °C 1020.5 hPa ENE 9.7 km/h 17.7 km/h 90% 0 mm
08:39 7.2 °C 5.6 °C 1020.5 hPa ENE 9.7 km/h 19.3 km/h 90% 0 mm
08:44 7.2 °C 5.5 °C 1020.2 hPa East 9.7 km/h 20.9 km/h 89% 0 mm
08:49 7.2 °C 5.5 °C 1019.9 hPa East 8 km/h 17.7 km/h 89% 0 mm
08:54 7.2 °C 5.6 °C 1020.2 hPa East 9.7 km/h 22.5 km/h 89% 0 mm
08:59 7.2 °C 5.3 °C 1019.9 hPa East 9.7 km/h 25.7 km/h 88% 0 mm
09:04 7.1 °C 5.2 °C 1019.9 hPa ENE 11.3 km/h 25.7 km/h 88% 0 mm
09:09 7 °C 5.2 °C 1019.9 hPa ENE 12.9 km/h 20.9 km/h 88% 0 mm
09:14 7 °C 5.2 °C 1019.9 hPa NE 6.4 km/h 19.3 km/h 88% 0 mm
09:19 7.1 °C 5.1 °C 1019.5 hPa ENE 11.3 km/h 20.9 km/h 87% 0 mm
09:24 7.1 °C 5.1 °C 1019.5 hPa ENE 11.3 km/h 20.9 km/h 87% 0 mm
09:29 7 °C 5 °C 1019.5 hPa ENE 8 km/h 22.5 km/h 87% 0 mm
09:34 7.1 °C 5.1 °C 1019.5 hPa NE 6.4 km/h 20.9 km/h 87% 0 mm
09:39 7.1 °C 5.1 °C 1019.9 hPa East 14.5 km/h 20.9 km/h 87% 0 mm
09:44 7.3 °C 5.3 °C 1019.9 hPa ENE 17.7 km/h 17.7 km/h 87% 0 mm
09:49 7.3 °C 5.2 °C 1019.9 hPa ESE 12.9 km/h 22.5 km/h 86% 0 mm
09:54 7.3 °C 5.1 °C 1019.5 hPa East 11.3 km/h 22.5 km/h 86% 0 mm
09:59 7.2 °C 5 °C 1019.9 hPa East 11.3 km/h 24.1 km/h 86% 0 mm
10:04 7.3 °C 5.2 °C 1020.2 hPa East 17.7 km/h 17.7 km/h 86% 0 mm
10:09 7.3 °C 5.1 °C 1019.9 hPa ENE 4.8 km/h 17.7 km/h 86% 0 mm
10:14 7.3 °C 5.3 °C 1019.9 hPa East 12.9 km/h 20.9 km/h 87% 0 mm
10:19 7.3 °C 5.2 °C 1019.9 hPa NE 16.1 km/h 19.3 km/h 86% 0 mm
10:24 7.3 °C 5.2 °C 1019.5 hPa ENE 9.7 km/h 24.1 km/h 86% 0 mm
10:29 7.4 °C 5.4 °C 1019.5 hPa ENE 9.7 km/h 24.1 km/h 87% 0 mm
10:34 7.6 °C 5.4 °C 1019.5 hPa ENE 4.8 km/h 22.5 km/h 86% 0 mm
10:39 7.7 °C 5.5 °C 1019.5 hPa East 11.3 km/h 20.9 km/h 86% 0 mm
10:44 7.8 °C 5.6 °C 1019.5 hPa ENE 11.3 km/h 17.7 km/h 86% 0 mm
10:49 7.7 °C 5.3 °C 1019.5 hPa NE 19.3 km/h 20.9 km/h 85% 0 mm
10:54 7.8 °C 5.4 °C 1019.9 hPa NE 11.3 km/h 22.5 km/h 85% 0 mm
10:59 7.8 °C 5.4 °C 1019.9 hPa NE 12.9 km/h 22.5 km/h 85% 0 mm
11:04 7.8 °C 5.4 °C 1019.9 hPa NE 12.9 km/h 25.7 km/h 85% 0 mm
11:09 7.7 °C 5.3 °C 1019.9 hPa NE 12.9 km/h 25.7 km/h 85% 0 mm
11:14 7.7 °C 5.3 °C 1019.9 hPa NE 14.5 km/h 25.7 km/h 85% 0 mm
11:19 7.6 °C 5.2 °C 1019.2 hPa NE 17.7 km/h 29 km/h 85% 0 mm
11:24 7.6 °C 5.2 °C 1018.8 hPa NE 14.5 km/h 29 km/h 85% 0 mm
11:29 7.6 °C 5.2 °C 1018.8 hPa ENE 8 km/h 24.1 km/h 85% 0 mm
11:34 7.6 °C 5.2 °C 1018.5 hPa East 11.3 km/h 29 km/h 85% 0 mm
11:39 7.6 °C 5.2 °C 1018.5 hPa NE 12.9 km/h 32.2 km/h 85% 0 mm
11:44 7.6 °C 5.2 °C 1018.5 hPa ENE 16.1 km/h 32.2 km/h 85% 0 mm
11:49 7.6 °C 5.2 °C 1018.2 hPa NE 16.1 km/h 29 km/h 85% 0 mm
11:54 7.6 °C 5.2 °C 1018.5 hPa ENE 12.9 km/h 24.1 km/h 85% 0 mm
11:59 7.5 °C 5.3 °C 1018.5 hPa ENE 11.3 km/h 29 km/h 86% 0.51 mm
12:04 7.3 °C 5.3 °C 1018.8 hPa NE 11.3 km/h 29 km/h 87% 0.76 mm
12:09 7.2 °C 5.2 °C 1018.8 hPa NE 14.5 km/h 25.7 km/h 87% 0.76 mm
12:14 7.2 °C 5.4 °C 1018.2 hPa East 12.9 km/h 19.3 km/h 88% 1.27 mm
12:19 7.2 °C 5.4 °C 1018.5 hPa ENE 11.3 km/h 20.9 km/h 88% 1.52 mm
12:24 7.2 °C 5.5 °C 1018.5 hPa NE 14.5 km/h 27.4 km/h 89% 1.52 mm
12:34 6.9 °C 5.3 °C 1018.2 hPa NE 9.7 km/h 20.9 km/h 89% 2.03 mm
12:39 7 °C 5.4 °C 1017.8 hPa East 11.3 km/h 16.1 km/h 90% 2.79 mm
12:44 7 °C 5.4 °C 1017.8 hPa NE 6.4 km/h 19.3 km/h 90% 3.3 mm
12:49 7 °C 5.4 °C 1017.5 hPa ENE 9.7 km/h 22.5 km/h 90% 3.56 mm
12:54 7 °C 5.4 °C 1017.2 hPa ENE 11.3 km/h 25.7 km/h 90% 3.81 mm
12:59 7 °C 5.4 °C 1016.8 hPa ENE 11.3 km/h 25.7 km/h 90% 3.3 mm
13:04 7 °C 5.4 °C 1016.8 hPa ENE 14.5 km/h 24.1 km/h 90% 3.05 mm
13:09 7.1 °C 5.5 °C 1016.8 hPa ESE 14.5 km/h 30.6 km/h 90% 3.05 mm
13:14 7 °C 5.4 °C 1016.8 hPa ENE 12.9 km/h 30.6 km/h 90% 2.54 mm
13:19 7.1 °C 5.5 °C 1016.8 hPa ENE 11.3 km/h 22.5 km/h 90% 2.29 mm
13:24 7.1 °C 5.5 °C 1016.8 hPa ENE 11.3 km/h 25.7 km/h 90% 2.29 mm
13:29 7 °C 5.4 °C 1016.8 hPa ENE 14.5 km/h 24.1 km/h 90% 2.29 mm
13:34 7 °C 5.4 °C 1016.8 hPa NE 8 km/h 20.9 km/h 90% 1.78 mm
13:39 7.1 °C 5.6 °C 1016.8 hPa NE 14.5 km/h 24.1 km/h 90% 1.02 mm
13:44 7.1 °C 5.5 °C 1016.8 hPa ENE 11.3 km/h 24.1 km/h 90% 0.51 mm
13:49 7.2 °C 5.6 °C 1016.5 hPa NE 12.9 km/h 17.7 km/h 90% 0.25 mm
13:59 7.2 °C 5.6 °C 1016.1 hPa ENE 4.8 km/h 22.5 km/h 90% 0 mm
14:04 7.2 °C 5.7 °C 1016.1 hPa ENE 14.5 km/h 24.1 km/h 90% 0.25 mm
14:09 7.2 °C 5.6 °C 1016.1 hPa NE 8 km/h 16.1 km/h 90% 0.51 mm
14:14 7.2 °C 5.6 °C 1016.1 hPa ENE 9.7 km/h 20.9 km/h 90% 1.02 mm
14:19 7.1 °C 5.5 °C 1015.8 hPa East 8 km/h 20.9 km/h 90% 3.05 mm
14:24 7 °C 5.4 °C 1016.1 hPa East 8 km/h 20.9 km/h 90% 4.06 mm
14:29 7 °C 5.4 °C 1015.8 hPa East 9.7 km/h 17.7 km/h 90% 5.59 mm
14:34 7 °C 5.6 °C 1015.8 hPa East 8 km/h 14.5 km/h 91% 6.6 mm
14:39 7.1 °C 5.7 °C 1015.5 hPa East 8 km/h 17.7 km/h 91% 7.62 mm
14:44 7.1 °C 5.7 °C 1015.1 hPa East 9.7 km/h 24.1 km/h 91% 7.87 mm
14:49 7.2 °C 5.8 °C 1015.1 hPa East 9.7 km/h 24.1 km/h 91% 8.13 mm
14:54 7.3 °C 5.9 °C 1015.1 hPa ENE 9.7 km/h 20.9 km/h 91% 8.38 mm
14:59 7.4 °C 6.2 °C 1014.8 hPa East 11.3 km/h 17.7 km/h 92% 8.64 mm
15:04 7.3 °C 5.9 °C 1014.8 hPa ENE 9.7 km/h 20.9 km/h 91% 8.89 mm
15:09 7.3 °C 5.9 °C 1014.8 hPa ESE 6.4 km/h 20.9 km/h 91% 9.14 mm
15:14 7.3 °C 5.9 °C 1014.1 hPa ENE 6.4 km/h 16.1 km/h 91% 9.14 mm
15:19 7.4 °C 6.2 °C 1013.8 hPa ENE 6.4 km/h 14.5 km/h 92% 7.62 mm
15:24 7.6 °C 6.4 °C 1013.8 hPa East 3.2 km/h 22.5 km/h 92% 6.86 mm
15:29 7.6 °C 6.4 °C 1014.1 hPa ENE 6.4 km/h 16.1 km/h 92% 5.33 mm
15:34 7.7 °C 6.4 °C 1014.1 hPa ENE 8 km/h 16.1 km/h 92% 4.32 mm
15:39 7.7 °C 6.5 °C 1014.1 hPa East 6.4 km/h 12.9 km/h 92% 3.56 mm
15:44 7.9 °C 6.7 °C 1013.8 hPa East 6.4 km/h 14.5 km/h 92% 3.56 mm
15:54 8.1 °C 6.8 °C 1012.8 hPa SE 8 km/h 20.9 km/h 92% 4.06 mm
15:59 8.1 °C 6.7 °C 1012.8 hPa SE 8 km/h 20.9 km/h 91% 4.06 mm
16:04 8.2 °C 6.9 °C 1012.8 hPa East 9.7 km/h 20.9 km/h 92% 3.56 mm
16:09 8.3 °C 7.1 °C 1013.1 hPa East 4.8 km/h 17.7 km/h 92% 3.3 mm
16:14 8.4 °C 7.2 °C 1012.8 hPa NE 9.7 km/h 16.1 km/h 92% 2.79 mm
16:19 8.7 °C 7.3 °C 1012.4 hPa East 9.7 km/h 17.7 km/h 91% 2.29 mm
16:24 8.9 °C 7.7 °C 1012.8 hPa NE 9.7 km/h 20.9 km/h 92% 2.03 mm
16:29 9.1 °C 7.7 °C 1012.8 hPa NE 9.7 km/h 20.9 km/h 91% 2.03 mm
16:34 9.2 °C 7.8 °C 1012.8 hPa NE 9.7 km/h 20.9 km/h 91% 2.03 mm
16:39 9.2 °C 7.8 °C 1012.8 hPa NE 9.7 km/h 20.9 km/h 91% 1.78 mm
16:44 9.1 °C 7.7 °C 1012.8 hPa NE 9.7 km/h 20.9 km/h 91% 1.52 mm
16:49 8.9 °C 7.4 °C 1012.8 hPa NE 11.3 km/h 20.9 km/h 90% 1.27 mm
16:54 8.8 °C 7.3 °C 1012.8 hPa NE 9.7 km/h 19.3 km/h 90% 1.02 mm
16:59 8.7 °C 7.3 °C 1012.8 hPa ESE 4.8 km/h 14.5 km/h 91% 1.27 mm
17:04 8.7 °C 7.3 °C 1012.8 hPa NE 6.4 km/h 17.7 km/h 91% 1.52 mm
17:09 8.6 °C 7.2 °C 1013.1 hPa NE 8 km/h 14.5 km/h 91% 2.03 mm
17:14 8.4 °C 7.1 °C 1012.1 hPa East 9.7 km/h 22.5 km/h 91% 4.83 mm
17:19 8.3 °C 6.9 °C 1012.4 hPa ENE 6.4 km/h 17.7 km/h 91% 6.1 mm
17:24 8.3 °C 7.1 °C 1012.1 hPa ESE 4.8 km/h 14.5 km/h 92% 8.38 mm
17:29 8.5 °C 7.3 °C 1012.1 hPa ESE 6.4 km/h 14.5 km/h 92% 9.4 mm
17:34 8.6 °C 7.4 °C 1011.4 hPa ESE 6.4 km/h 14.5 km/h 92% 10.92 mm
17:39 8.8 °C 7.6 °C 1011.7 hPa East 4.8 km/h 16.1 km/h 92% 11.94 mm
17:44 8.9 °C 7.7 °C 1011.4 hPa ENE 6.4 km/h 14.5 km/h 92% 12.7 mm
17:49 9.1 °C 8 °C 1011.4 hPa ENE 3.2 km/h 12.9 km/h 93% 12.7 mm
17:54 9.2 °C 8.1 °C 1011.4 hPa East 4.8 km/h 14.5 km/h 93% 12.45 mm
17:59 9.3 °C 8.2 °C 1011.4 hPa ENE 6.4 km/h 14.5 km/h 93% 11.94 mm
18:09 9.5 °C 8.4 °C 1011.1 hPa ENE 6.4 km/h 19.3 km/h 93% 10.92 mm
18:14 9.6 °C 8.6 °C 1011.4 hPa NE 8 km/h 19.3 km/h 93% 7.87 mm
18:19 9.6 °C 8.6 °C 1011.1 hPa NE 3.2 km/h 14.5 km/h 93% 7.11 mm
18:24 9.6 °C 8.6 °C 1010.7 hPa East 9.7 km/h 16.1 km/h 93% 4.83 mm
18:29 9.6 °C 8.5 °C 1011.1 hPa NE 4.8 km/h 14.5 km/h 93% 4.06 mm
18:34 9.6 °C 8.5 °C 1011.4 hPa NNW 4.8 km/h 16.1 km/h 93% 2.79 mm
18:39 9.6 °C 8.5 °C 1010.7 hPa East 8 km/h 14.5 km/h 93% 3.05 mm
18:44 9.6 °C 8.6 °C 1010.7 hPa NE 1.6 km/h 17.7 km/h 93% 2.79 mm
18:49 9.7 °C 8.6 °C 1010.4 hPa ENE 6.4 km/h 19.3 km/h 93% 2.54 mm
18:54 9.7 °C 8.6 °C 1010.4 hPa East 9.7 km/h 16.1 km/h 93% 2.54 mm
18:59 9.8 °C 8.7 °C 1010.7 hPa ENE 6.4 km/h 16.1 km/h 93% 2.54 mm
19:04 9.8 °C 8.8 °C 1010.7 hPa NE 4.8 km/h 16.1 km/h 93% 2.54 mm
19:09 9.8 °C 8.7 °C 1010 hPa East 8 km/h 14.5 km/h 93% 2.29 mm
19:19 9.8 °C 8.8 °C 1010.4 hPa NE 17.7 km/h 17.7 km/h 93% 2.29 mm
19:24 9.8 °C 8.7 °C 1010 hPa NE 8 km/h 17.7 km/h 93% 2.29 mm
19:29 9.7 °C 8.7 °C 1010 hPa NE 9.7 km/h 19.3 km/h 93% 2.03 mm
19:39 9.7 °C 8.6 °C 1010.4 hPa NNE 8 km/h 14.5 km/h 93% 0.51 mm
19:44 9.4 °C 8.2 °C 1011.1 hPa NNW 25.7 km/h 29 km/h 92% 0 mm
19:49 8.7 °C 7.3 °C 1010 hPa NE 9.7 km/h 25.7 km/h 91% 0 mm
19:54 8.3 °C 7.1 °C 1010.4 hPa NNE 6.4 km/h 25.7 km/h 92% 0.51 mm
19:59 8.2 °C 7 °C 1011.4 hPa North 8 km/h 22.5 km/h 92% 1.27 mm
20:04 8.1 °C 6.9 °C 1011.4 hPa NNE 8 km/h 19.3 km/h 92% 3.05 mm
20:09 8.1 °C 7.1 °C 1011.1 hPa NE 12.9 km/h 20.9 km/h 93% 4.06 mm
20:14 8.1 °C 7 °C 1011.4 hPa NNE 8 km/h 19.3 km/h 93% 5.59 mm
20:19 8.1 °C 7.1 °C 1014.1 hPa WSW 6.4 km/h 20.9 km/h 93% 6.1 mm
20:24 8.1 °C 7 °C 1012.1 hPa NW 9.7 km/h 20.9 km/h 93% 7.87 mm
20:29 8 °C 6.9 °C 1012.1 hPa NE 8 km/h 20.9 km/h 93% 8.89 mm
20:34 8 °C 6.9 °C 1012.4 hPa NE 6.4 km/h 20.9 km/h 93% 9.4 mm
20:39 7.9 °C 6.9 °C 1012.1 hPa ENE 4.8 km/h 12.9 km/h 93% 9.65 mm
20:44 7.9 °C 6.9 °C 1012.1 hPa ENE 11.3 km/h 12.9 km/h 93% 9.91 mm
20:49 7.9 °C 6.9 °C 1011.7 hPa East 8 km/h 17.7 km/h 93% 10.41 mm
20:54 7.9 °C 6.9 °C 1011.4 hPa ENE 8 km/h 16.1 km/h 93% 10.16 mm
20:59 8.1 °C 7 °C 1011.1 hPa ENE 11.3 km/h 17.7 km/h 93% 9.91 mm
21:04 8.1 °C 7.1 °C 1010.7 hPa ENE 8 km/h 16.1 km/h 93% 8.13 mm
21:09 8.2 °C 7.2 °C 1010.7 hPa East 9.7 km/h 12.9 km/h 93% 7.11 mm
21:14 8.3 °C 7.3 °C 1010.4 hPa East 3.2 km/h 11.3 km/h 93% 5.84 mm
21:19 8.4 °C 7.3 °C 1010.4 hPa East 4.8 km/h 16.1 km/h 93% 5.59 mm
21:24 8.4 °C 7.4 °C 1010.4 hPa ESE 6.4 km/h 16.1 km/h 93% 4.06 mm
21:29 8.6 °C 7.5 °C 1010.4 hPa ESE 6.4 km/h 16.1 km/h 93% 3.05 mm
21:34 8.6 °C 7.5 °C 1010 hPa ESE 4.8 km/h 14.5 km/h 93% 2.54 mm
21:39 8.6 °C 7.5 °C 1010 hPa East 6.4 km/h 20.9 km/h 93% 2.29 mm
21:44 8.6 °C 7.5 °C 1010 hPa East 6.4 km/h 20.9 km/h 93% 1.78 mm
21:49 8.6 °C 7.6 °C 1009.7 hPa East 4.8 km/h 11.3 km/h 93% 1.52 mm
21:54 8.7 °C 7.6 °C 1009.4 hPa ENE 4.8 km/h 12.9 km/h 93% 1.27 mm
21:59 8.8 °C 7.7 °C 1009.4 hPa East 4.8 km/h 12.9 km/h 93% 0.76 mm
22:04 8.8 °C 7.8 °C 1009 hPa SSE 4.8 km/h 4.8 km/h 93% 0.76 mm
22:14 9 °C 7.9 °C 1009 hPa Calm   3.2 km/h 93% 0.51 mm
22:19 9.1 °C 8.1 °C 1009 hPa Calm     93% 0.25 mm
22:24 9.2 °C 8.3 °C 1009 hPa Calm     94% 0 mm
22:29 9.3 °C 8.4 °C 1008.7 hPa Calm     94% 0 mm
22:34 9.4 °C 8.4 °C 1009 hPa Calm     93% 0 mm
22:44 9.7 °C 8.7 °C 1009 hPa Calm     94% 0 mm
22:49 9.7 °C 8.7 °C 1009 hPa Calm     94% 0 mm
22:54 9.7 °C 8.8 °C 1009 hPa Calm     94% 0 mm
22:59 9.7 °C 8.8 °C 1009 hPa Calm     94% 0 mm
23:04 9.7 °C 8.7 °C 1009 hPa Calm     94% 0 mm
23:09 9.7 °C 8.8 °C 1008.7 hPa Calm     94% 0 mm
23:14 9.8 °C 8.8 °C 1008.7 hPa Calm     94% 0 mm
23:19 9.8 °C 8.8 °C 1008.7 hPa Calm     94% 0 mm
23:24 9.8 °C 8.8 °C 1008.7 hPa Calm     94% 0 mm
23:29 9.8 °C 8.8 °C 1008.7 hPa Calm     94% 0 mm
23:34 9.8 °C 8.8 °C 1008.7 hPa Calm     94% 0 mm
23:39 9.8 °C 8.9 °C 1009 hPa Calm     94% 0 mm
23:44 9.9 °C 8.9 °C 1009 hPa Calm     94% 0 mm
23:49 10 °C 9.1 °C 1009 hPa Calm     94% 0 mm
23:59 10.3 °C 9.3 °C 1009 hPa Calm     94% 0.25 mm
Buffalo, New York, USA
Compliments of Weather Underground - 2.25 mb